»·PEaware :: DAL354 KPSP-KBUR

DAL354 :: KPSP-KBUR

FLIGHT INFORMATION

Flight Status: Arrived
Operator:
Delta Air Lines
More flights by this operator :: More flights under this callsign
Pilot: Sergei F. (8485)
Aircraft: BOEING 737-300
(B733)
More flights by this aircraft type
Origin: KPSP Palm Springs Intl
United States
Destination: KBUR Bob Hope-Burbank
United States
More flights between these airports :: More routes between these airports
Route: +CATH1 PSP V388 PDZ V197 POM V264 ITSME V186 VNY
File this flight plan on PilotEdge
Remarks:
Altitude:
(Current/Filed)
12,000ft
Speed:
(Current/Filed)
300kts
Departed: 15-Sep-17 07:57 PM
Arrived: 15-Sep-17 08:40 PM
Distance/Time
Traveled:
94nm/0:43
Distance/Time
To Go:
Arrived

Flight Plot

Page will automatically refresh every two minutes.


Map Options




Map Legend


Flown Route
Filed Route
Departure Airport
Arrival Airport
Navaid (VOR, NDB)
Fix

Horizontal Profiles

Position Reports

Time Latitude Longitude Heading Altitude Ground
Speed
15-Sep-17 19:42 33.823711 -116.506188 225 415ft 0kts
15-Sep-17 19:43 33.823711 -116.506188 225 415ft 0kts
15-Sep-17 19:44 33.823711 -116.506188 225 415ft 0kts
15-Sep-17 19:45 33.823711 -116.506188 225 415ft 0kts
15-Sep-17 19:46 33.823711 -116.506188 225 415ft 0kts
15-Sep-17 19:47 33.823711 -116.506188 225 415ft 0kts
15-Sep-17 19:48 33.823711 -116.506188 225 415ft 0kts
15-Sep-17 19:49 33.823763 -116.506122 225 415ft 0kts
15-Sep-17 19:50 33.824129 -116.505661 226 415ft 0kts
15-Sep-17 19:51 33.824143 -116.505640 142 416ft 0kts
15-Sep-17 19:52 33.824143 -116.505640 142 416ft 0kts
15-Sep-17 19:53 33.824143 -116.505640 142 416ft 0kts
15-Sep-17 19:54 33.824143 -116.505640 142 416ft 0kts
15-Sep-17 19:55 33.824143 -116.505640 142 416ft 0kts
15-Sep-17 19:56 33.824143 -116.505640 142 416ft 0kts
15-Sep-17 19:57 33.823947 -116.505468 143 415ft 8kts
15-Sep-17 19:58 33.822406 -116.503221 143 409ft 12kts
15-Sep-17 19:59 33.819054 -116.500252 142 401ft 8kts
15-Sep-17 20:00 33.819121 -116.498241 327 397ft 5kts
15-Sep-17 20:01 33.829140 -116.507199 322 456ft 149kts
15-Sep-17 20:02 33.862204 -116.536057 323 2353ft 150kts
15-Sep-17 20:03 33.896394 -116.566551 332 4160ft 158kts
15-Sep-17 20:04 33.906084 -116.528185 112 5935ft 188kts
15-Sep-17 20:05 33.883170 -116.469823 111 8205ft 200kts
15-Sep-17 20:06 33.914514 -116.448270 305 9696ft 226kts
15-Sep-17 20:07 33.948418 -116.517676 301 11502ft 262kts
15-Sep-17 20:08 33.957321 -116.612281 265 12012ft 338kts
15-Sep-17 20:09 33.949482 -116.727407 266 12060ft 331kts
15-Sep-17 20:10 33.945362 -116.836002 268 12094ft 328kts
15-Sep-17 20:11 33.941704 -116.943791 268 12138ft 326kts
15-Sep-17 20:12 33.937977 -117.050829 268 12023ft 324kts
15-Sep-17 20:13 33.934222 -117.156024 268 11990ft 321kts
15-Sep-17 20:14 33.929754 -117.256866 268 12006ft 325kts
15-Sep-17 20:15 33.926101 -117.340873 268 12002ft 324kts
15-Sep-17 20:16 33.921890 -117.442011 268 12000ft 324kts
15-Sep-17 20:17 33.924221 -117.545944 299 11995ft 321kts
15-Sep-17 20:18 33.984523 -117.636883 308 12000ft 322kts
15-Sep-17 20:19 34.033016 -117.714475 307 12005ft 323kts
15-Sep-17 20:20 34.072495 -117.777920 304 12014ft 323kts
15-Sep-17 20:21 34.077437 -117.887386 268 12060ft 296kts
15-Sep-17 20:22 34.075788 -117.959123 269 12018ft 295kts
15-Sep-17 20:23 34.086583 -118.043990 291 12000ft 294kts
15-Sep-17 20:24 34.112360 -118.126541 291 11988ft 293kts
15-Sep-17 20:25 34.138136 -118.210304 290 11986ft 293kts
15-Sep-17 20:26 34.164052 -118.295247 290 11982ft 293kts
15-Sep-17 20:27 34.189196 -118.377279 291 11535ft 301kts
15-Sep-17 20:28 34.213817 -118.454239 291 9682ft 293kts
15-Sep-17 20:29 34.218398 -118.468291 291 9402ft 289kts
15-Sep-17 20:31 34.267625 -118.613834 291 6290ft 258kts
15-Sep-17 20:32 34.290217 -118.679322 291 5059ft 251kts
15-Sep-17 20:33 34.312213 -118.749954 263 4989ft 214kts
15-Sep-17 20:34 34.264013 -118.767869 172 4988ft 214kts
15-Sep-17 20:35 34.217341 -118.740258 112 5023ft 186kts
15-Sep-17 20:36 34.200425 -118.683054 97 5010ft 186kts
15-Sep-17 20:37 34.201067 -118.628013 89 4846ft 157kts
15-Sep-17 20:38 34.200656 -118.579741 92 4388ft 155kts
15-Sep-17 20:39 34.199804 -118.531560 93 3229ft 141kts
15-Sep-17 20:40 34.198953 -118.486601 94 2772ft 148kts
15-Sep-17 20:41 34.198988 -118.439230 93 1997ft 152kts
15-Sep-17 20:42 34.198271 -118.394238 95 1182ft 140kts
15-Sep-17 20:43 34.197730 -118.356363 91 711ft 80kts
15-Sep-17 20:44 34.197285 -118.350191 181 696ft 0kts
15-Sep-17 20:45 34.197163 -118.350484 267 697ft 3kts
15-Sep-17 20:46 34.196932 -118.351446 189 699ft 2kts
15-Sep-17 20:47 34.196771 -118.351453 180 699ft 0kts
15-Sep-17 20:48 34.196770 -118.351453 180 699ft 0kts
15-Sep-17 20:49 34.196770 -118.351453 180 699ft 0kts
15-Sep-17 20:50 34.196770 -118.351453 180 699ft 0kts

Navigation Log

Ident Type
1. KPSP Airport
2. PSP Navaid
3. DEWAY Fix
4. ACINS Fix
5. LENHO Fix
6. KNDAL Fix
7. PDZ Navaid
8. POM Navaid
9. COVIN Fix
10. HOPUN Fix
11. ITSME Fix
12. ELMOO Fix
13. PURMS Fix
14. DARTS Fix
15. VNY Navaid
16. KBUR Airport